SBAR

Details ICAO SBAR (AJU)
Name Aracaju-Santa Maria Intl
Region Brazil
Timezone America/Maceio (UTC-3.0)
Plans Departing 302
Arriving 295
Stats Elevation 23 ft / 7 m (AMSL)
Location -10.984000° -37.070400°
Runways 1
Magnetic Variation 23.050° W
Sunrise 2021-06-15 08:45:37 UTC / 2021-06-15 05:45:37 Local
Sunset 2021-06-15 20:14:39 UTC / 2021-06-15 17:14:39 Local
Advertisement - Login to hide

Runways

ID Width Length Bearing (true/mag) Surface Threshold Overrun Markings Lighting
12 150 ft / 46 m 7,225 ft / 2,202 m 91.97° / 115.02° ASPHALT 0 ft / 0 m 0 ft / 0 m APP EDGE THRESHOLD REIL-UNI
30 150 ft / 46 m 7,225 ft / 2,202 m 271.97° / 295.02° ASPHALT 0 ft / 0 m 0 ft / 0 m APP EDGE THRESHOLD REIL-UNI

Map

Weather


0- 5 10 15 20 25 30 35+ Temperature / °C

Clouds and Precipitation
Forecast for 2021-06-15 12:00 UTC. Updated 6 hours ago

Ground ~20,000 ft ~40,000 ft Winds

METAR

SBAR 151500Z 17014KT 9999 VCSH SCT019 SCT050 27/22 Q1016

TAF

TAF SBAR 150926Z 1512/1612 17013KT 4000 RA SCT008 BKN013 TX27/1517Z TN24/1608Z BECMG 1513/1515 9999 NSW SCT025 BECMG 1603/1605 26005KT RMK PHQ

Frequencies

Tower 118.80 MHz Aracaju Tower
Unicom 129.25 MHz Aracaju AFIS
Approach 120.30 MHz Aracaju Approach
Warning: Do not use this data for real-world aviation or navigation. No guarantee of current accuracy is given.